sensor_id;sensor_type;location;lat;lon;timestamp;P1;durP1;ratioP1;P2;durP2;ratioP2
8232;SDS011;4157;48.074;9.952;2023-05-07T00:01:27;6.72;;;4.90;;
8232;SDS011;4157;48.074;9.952;2023-05-07T00:03:55;6.43;;;4.20;;
8232;SDS011;4157;48.074;9.952;2023-05-07T00:06:23;6.22;;;4.20;;
8232;SDS011;4157;48.074;9.952;2023-05-07T00:08:51;7.53;;;3.85;;
8232;SDS011;4157;48.074;9.952;2023-05-07T00:11:19;7.00;;;3.92;;
8232;SDS011;4157;48.074;9.952;2023-05-07T00:13:47;7.53;;;3.90;;
8232;SDS011;4157;48.074;9.952;2023-05-07T00:16:14;4.65;;;3.47;;
8232;SDS011;4157;48.074;9.952;2023-05-07T00:18:43;7.95;;;3.90;;
8232;SDS011;4157;48.074;9.952;2023-05-07T00:21:11;6.00;;;4.13;;
8232;SDS011;4157;48.074;9.952;2023-05-07T00:23:39;6.15;;;4.30;;
8232;SDS011;4157;48.074;9.952;2023-05-07T00:26:06;6.57;;;4.22;;
8232;SDS011;4157;48.074;9.952;2023-05-07T00:28:34;8.20;;;4.47;;
8232;SDS011;4157;48.074;9.952;2023-05-07T00:31:02;5.82;;;4.47;;
8232;SDS011;4157;48.074;9.952;2023-05-07T00:33:30;7.47;;;4.50;;
8232;SDS011;4157;48.074;9.952;2023-05-07T00:35:59;8.57;;;5.13;;
8232;SDS011;4157;48.074;9.952;2023-05-07T00:38:27;7.88;;;5.28;;
8232;SDS011;4157;48.074;9.952;2023-05-07T00:40:55;6.47;;;4.70;;
8232;SDS011;4157;48.074;9.952;2023-05-07T00:43:23;7.00;;;4.80;;
8232;SDS011;4157;48.074;9.952;2023-05-07T00:45:51;7.90;;;5.05;;
8232;SDS011;4157;48.074;9.952;2023-05-07T00:48:18;8.02;;;4.65;;
8232;SDS011;4157;48.074;9.952;2023-05-07T00:50:46;7.55;;;4.68;;
8232;SDS011;4157;48.074;9.952;2023-05-07T00:53:16;7.07;;;5.22;;
8232;SDS011;4157;48.074;9.952;2023-05-07T00:55:43;7.53;;;5.22;;
8232;SDS011;4157;48.074;9.952;2023-05-07T00:58:11;5.80;;;4.28;;
8232;SDS011;4157;48.074;9.952;2023-05-07T01:00:39;6.82;;;4.63;;
8232;SDS011;4157;48.074;9.952;2023-05-07T01:03:07;6.78;;;4.50;;
8232;SDS011;4157;48.074;9.952;2023-05-07T01:05:35;6.90;;;4.80;;
8232;SDS011;4157;48.074;9.952;2023-05-07T01:08:02;7.18;;;5.00;;
8232;SDS011;4157;48.074;9.952;2023-05-07T01:10:33;7.53;;;4.78;;
8232;SDS011;4157;48.074;9.952;2023-05-07T01:13:00;8.73;;;5.32;;
8232;SDS011;4157;48.074;9.952;2023-05-07T01:15:29;8.63;;;4.88;;
8232;SDS011;4157;48.074;9.952;2023-05-07T01:17:56;7.82;;;4.57;;
8232;SDS011;4157;48.074;9.952;2023-05-07T01:20:30;8.07;;;4.63;;
8232;SDS011;4157;48.074;9.952;2023-05-07T01:22:59;7.30;;;4.90;;
8232;SDS011;4157;48.074;9.952;2023-05-07T01:25:28;7.38;;;5.05;;
8232;SDS011;4157;48.074;9.952;2023-05-07T01:27:58;12.80;;;5.13;;
8232;SDS011;4157;48.074;9.952;2023-05-07T01:30:29;6.78;;;4.38;;
8232;SDS011;4157;48.074;9.952;2023-05-07T01:33:00;7.35;;;4.65;;
8232;SDS011;4157;48.074;9.952;2023-05-07T01:35:30;6.55;;;4.72;;
8232;SDS011;4157;48.074;9.952;2023-05-07T01:38:01;7.70;;;4.72;;
8232;SDS011;4157;48.074;9.952;2023-05-07T01:40:30;6.68;;;4.53;;
8232;SDS011;4157;48.074;9.952;2023-05-07T01:42:57;5.72;;;4.10;;
8232;SDS011;4157;48.074;9.952;2023-05-07T01:45:25;7.72;;;4.50;;
8232;SDS011;4157;48.074;9.952;2023-05-07T01:47:53;5.40;;;3.78;;
8232;SDS011;4157;48.074;9.952;2023-05-07T01:50:21;6.68;;;4.13;;
8232;SDS011;4157;48.074;9.952;2023-05-07T01:52:50;7.60;;;4.63;;
8232;SDS011;4157;48.074;9.952;2023-05-07T01:55:19;5.63;;;3.72;;
8232;SDS011;4157;48.074;9.952;2023-05-07T01:57:47;8.55;;;4.85;;
8232;SDS011;4157;48.074;9.952;2023-05-07T02:00:15;7.68;;;4.85;;
8232;SDS011;4157;48.074;9.952;2023-05-07T02:02:44;6.72;;;4.20;;
8232;SDS011;4157;48.074;9.952;2023-05-07T02:05:33;6.25;;;4.35;;
8232;SDS011;4157;48.074;9.952;2023-05-07T02:08:06;8.32;;;4.25;;
8232;SDS011;4157;48.074;9.952;2023-05-07T02:10:35;5.75;;;4.07;;
8232;SDS011;4157;48.074;9.952;2023-05-07T02:13:05;7.22;;;4.78;;
8232;SDS011;4157;48.074;9.952;2023-05-07T02:15:33;6.30;;;4.40;;
8232;SDS011;4157;48.074;9.952;2023-05-07T02:18:03;6.57;;;4.70;;
8232;SDS011;4157;48.074;9.952;2023-05-07T02:20:32;9.07;;;4.50;;
8232;SDS011;4157;48.074;9.952;2023-05-07T02:22:59;5.82;;;3.85;;
8232;SDS011;4157;48.074;9.952;2023-05-07T02:25:29;6.43;;;4.45;;
8232;SDS011;4157;48.074;9.952;2023-05-07T02:27:58;5.47;;;3.78;;
8232;SDS011;4157;48.074;9.952;2023-05-07T02:30:39;8.00;;;4.50;;
8232;SDS011;4157;48.074;9.952;2023-05-07T02:33:08;6.43;;;4.60;;
8232;SDS011;4157;48.074;9.952;2023-05-07T02:35:38;6.15;;;4.22;;
8232;SDS011;4157;48.074;9.952;2023-05-07T02:38:06;7.18;;;4.68;;
8232;SDS011;4157;48.074;9.952;2023-05-07T02:40:36;7.55;;;4.35;;
8232;SDS011;4157;48.074;9.952;2023-05-07T02:43:06;7.53;;;4.10;;
8232;SDS011;4157;48.074;9.952;2023-05-07T02:45:35;6.90;;;4.60;;
8232;SDS011;4157;48.074;9.952;2023-05-07T02:48:04;5.85;;;4.30;;
8232;SDS011;4157;48.074;9.952;2023-05-07T02:50:32;7.47;;;4.70;;
8232;SDS011;4157;48.074;9.952;2023-05-07T02:53:00;6.22;;;4.28;;
8232;SDS011;4157;48.074;9.952;2023-05-07T02:55:28;6.10;;;4.22;;
8232;SDS011;4157;48.074;9.952;2023-05-07T02:57:56;7.03;;;5.20;;
8232;SDS011;4157;48.074;9.952;2023-05-07T03:00:26;6.05;;;4.38;;
8232;SDS011;4157;48.074;9.952;2023-05-07T03:03:08;7.32;;;4.50;;
8232;SDS011;4157;48.074;9.952;2023-05-07T03:05:36;6.53;;;4.55;;
8232;SDS011;4157;48.074;9.952;2023-05-07T03:08:04;5.60;;;3.97;;
8232;SDS011;4157;48.074;9.952;2023-05-07T03:10:32;6.25;;;3.90;;
8232;SDS011;4157;48.074;9.952;2023-05-07T03:13:00;7.22;;;4.90;;
8232;SDS011;4157;48.074;9.952;2023-05-07T03:15:29;9.65;;;4.80;;
8232;SDS011;4157;48.074;9.952;2023-05-07T03:17:57;7.47;;;4.43;;
8232;SDS011;4157;48.074;9.952;2023-05-07T03:20:25;6.97;;;4.50;;
8232;SDS011;4157;48.074;9.952;2023-05-07T03:22:53;7.00;;;4.25;;
8232;SDS011;4157;48.074;9.952;2023-05-07T03:25:21;6.75;;;4.40;;
8232;SDS011;4157;48.074;9.952;2023-05-07T03:27:49;7.55;;;4.68;;
8232;SDS011;4157;48.074;9.952;2023-05-07T03:30:20;6.82;;;4.72;;
8232;SDS011;4157;48.074;9.952;2023-05-07T03:32:49;7.18;;;4.50;;
8232;SDS011;4157;48.074;9.952;2023-05-07T03:35:17;7.32;;;4.68;;
8232;SDS011;4157;48.074;9.952;2023-05-07T03:37:45;7.30;;;4.50;;
8232;SDS011;4157;48.074;9.952;2023-05-07T03:40:13;8.07;;;4.90;;
8232;SDS011;4157;48.074;9.952;2023-05-07T03:42:46;7.45;;;4.75;;
8232;SDS011;4157;48.074;9.952;2023-05-07T03:45:14;7.22;;;4.05;;
8232;SDS011;4157;48.074;9.952;2023-05-07T03:47:47;7.97;;;4.45;;
8232;SDS011;4157;48.074;9.952;2023-05-07T03:50:19;6.60;;;4.55;;
8232;SDS011;4157;48.074;9.952;2023-05-07T03:52:46;6.75;;;4.60;;
8232;SDS011;4157;48.074;9.952;2023-05-07T03:55:17;8.77;;;4.53;;
8232;SDS011;4157;48.074;9.952;2023-05-07T03:57:50;7.20;;;4.75;;
8232;SDS011;4157;48.074;9.952;2023-05-07T04:00:18;6.75;;;4.30;;
8232;SDS011;4157;48.074;9.952;2023-05-07T04:02:47;5.72;;;4.00;;
8232;SDS011;4157;48.074;9.952;2023-05-07T04:05:22;9.23;;;4.70;;
8232;SDS011;4157;48.074;9.952;2023-05-07T04:07:54;6.40;;;4.15;;
8232;SDS011;4157;48.074;9.952;2023-05-07T04:10:29;7.17;;;4.30;;
8232;SDS011;4157;48.074;9.952;2023-05-07T04:12:58;7.40;;;4.95;;
8232;SDS011;4157;48.074;9.952;2023-05-07T04:15:26;6.85;;;5.00;;
8232;SDS011;4157;48.074;9.952;2023-05-07T04:17:55;5.82;;;4.70;;
8232;SDS011;4157;48.074;9.952;2023-05-07T04:20:25;6.78;;;4.95;;
8232;SDS011;4157;48.074;9.952;2023-05-07T04:22:59;7.03;;;4.82;;
8232;SDS011;4157;48.074;9.952;2023-05-07T04:25:27;6.60;;;4.70;;
8232;SDS011;4157;48.074;9.952;2023-05-07T04:28:01;9.93;;;5.38;;
8232;SDS011;4157;48.074;9.952;2023-05-07T04:30:30;6.97;;;5.15;;
8232;SDS011;4157;48.074;9.952;2023-05-07T04:32:57;9.05;;;4.95;;
8232;SDS011;4157;48.074;9.952;2023-05-07T04:35:29;6.07;;;4.68;;
8232;SDS011;4157;48.074;9.952;2023-05-07T04:37:57;9.60;;;4.75;;
8232;SDS011;4157;48.074;9.952;2023-05-07T04:40:25;6.22;;;4.78;;
8232;SDS011;4157;48.074;9.952;2023-05-07T04:42:53;9.90;;;5.82;;
8232;SDS011;4157;48.074;9.952;2023-05-07T04:45:21;7.70;;;6.10;;
8232;SDS011;4157;48.074;9.952;2023-05-07T04:47:52;8.93;;;6.07;;
8232;SDS011;4157;48.074;9.952;2023-05-07T04:50:19;7.72;;;5.45;;
8232;SDS011;4157;48.074;9.952;2023-05-07T04:52:52;8.40;;;5.57;;
8232;SDS011;4157;48.074;9.952;2023-05-07T04:55:20;6.90;;;5.10;;
8232;SDS011;4157;48.074;9.952;2023-05-07T04:57:48;6.38;;;5.18;;
8232;SDS011;4157;48.074;9.952;2023-05-07T05:00:16;8.73;;;5.43;;
8232;SDS011;4157;48.074;9.952;2023-05-07T05:02:46;7.75;;;5.50;;
8232;SDS011;4157;48.074;9.952;2023-05-07T05:05:17;7.47;;;5.20;;
8232;SDS011;4157;48.074;9.952;2023-05-07T05:07:47;6.35;;;5.05;;
8232;SDS011;4157;48.074;9.952;2023-05-07T05:10:16;10.30;;;5.63;;
8232;SDS011;4157;48.074;9.952;2023-05-07T05:12:44;6.28;;;5.05;;
8232;SDS011;4157;48.074;9.952;2023-05-07T05:15:12;8.38;;;5.15;;
8232;SDS011;4157;48.074;9.952;2023-05-07T05:17:39;7.38;;;5.03;;
8232;SDS011;4157;48.074;9.952;2023-05-07T05:20:07;7.68;;;5.68;;
8232;SDS011;4157;48.074;9.952;2023-05-07T05:22:36;6.68;;;5.38;;
8232;SDS011;4157;48.074;9.952;2023-05-07T05:25:04;8.77;;;5.75;;
8232;SDS011;4157;48.074;9.952;2023-05-07T05:27:33;8.70;;;6.20;;
8232;SDS011;4157;48.074;9.952;2023-05-07T05:30:01;7.88;;;5.88;;
8232;SDS011;4157;48.074;9.952;2023-05-07T05:32:30;7.00;;;5.70;;
8232;SDS011;4157;48.074;9.952;2023-05-07T05:34:58;7.95;;;6.00;;
8232;SDS011;4157;48.074;9.952;2023-05-07T05:37:26;7.20;;;6.00;;
8232;SDS011;4157;48.074;9.952;2023-05-07T05:39:56;9.48;;;6.70;;
8232;SDS011;4157;48.074;9.952;2023-05-07T05:42:26;9.80;;;6.32;;
8232;SDS011;4157;48.074;9.952;2023-05-07T05:44:55;9.10;;;6.53;;
8232;SDS011;4157;48.074;9.952;2023-05-07T05:47:24;7.10;;;6.03;;
8232;SDS011;4157;48.074;9.952;2023-05-07T05:49:54;9.57;;;6.60;;
8232;SDS011;4157;48.074;9.952;2023-05-07T05:52:22;8.63;;;6.78;;
8232;SDS011;4157;48.074;9.952;2023-05-07T05:54:51;9.13;;;7.68;;
8232;SDS011;4157;48.074;9.952;2023-05-07T05:57:19;7.97;;;6.72;;
8232;SDS011;4157;48.074;9.952;2023-05-07T05:59:47;9.02;;;7.65;;
8232;SDS011;4157;48.074;9.952;2023-05-07T06:02:16;8.68;;;7.15;;
8232;SDS011;4157;48.074;9.952;2023-05-07T06:04:44;8.18;;;7.10;;
8232;SDS011;4157;48.074;9.952;2023-05-07T06:07:16;9.77;;;7.53;;
8232;SDS011;4157;48.074;9.952;2023-05-07T06:09:43;10.13;;;7.50;;
8232;SDS011;4157;48.074;9.952;2023-05-07T06:12:11;9.80;;;7.30;;
8232;SDS011;4157;48.074;9.952;2023-05-07T06:14:39;11.90;;;9.00;;
8232;SDS011;4157;48.074;9.952;2023-05-07T06:17:07;9.55;;;8.55;;
8232;SDS011;4157;48.074;9.952;2023-05-07T06:19:36;9.93;;;8.43;;
8232;SDS011;4157;48.074;9.952;2023-05-07T06:22:04;10.27;;;8.43;;
8232;SDS011;4157;48.074;9.952;2023-05-07T06:24:33;9.50;;;8.32;;
8232;SDS011;4157;48.074;9.952;2023-05-07T06:27:01;10.82;;;8.38;;
8232;SDS011;4157;48.074;9.952;2023-05-07T06:29:30;9.18;;;8.02;;
8232;SDS011;4157;48.074;9.952;2023-05-07T06:32:05;10.38;;;8.63;;
8232;SDS011;4157;48.074;9.952;2023-05-07T06:34:33;11.10;;;8.68;;
8232;SDS011;4157;48.074;9.952;2023-05-07T06:37:02;9.77;;;7.75;;
8232;SDS011;4157;48.074;9.952;2023-05-07T06:39:43;12.07;;;8.40;;
8232;SDS011;4157;48.074;9.952;2023-05-07T06:42:11;10.68;;;8.18;;
8232;SDS011;4157;48.074;9.952;2023-05-07T06:44:41;10.05;;;8.60;;
8232;SDS011;4157;48.074;9.952;2023-05-07T06:47:14;9.93;;;8.93;;
8232;SDS011;4157;48.074;9.952;2023-05-07T06:49:44;9.98;;;8.45;;
8232;SDS011;4157;48.074;9.952;2023-05-07T06:52:16;9.23;;;7.53;;
8232;SDS011;4157;48.074;9.952;2023-05-07T06:54:45;9.48;;;7.57;;
8232;SDS011;4157;48.074;9.952;2023-05-07T06:57:15;8.70;;;7.78;;
8232;SDS011;4157;48.074;9.952;2023-05-07T06:59:43;9.55;;;7.63;;
8232;SDS011;4157;48.074;9.952;2023-05-07T07:02:11;9.02;;;7.80;;
8232;SDS011;4157;48.074;9.952;2023-05-07T07:04:39;9.57;;;7.60;;
8232;SDS011;4157;48.074;9.952;2023-05-07T07:07:09;7.93;;;6.80;;
8232;SDS011;4157;48.074;9.952;2023-05-07T07:09:40;8.43;;;7.07;;
8232;SDS011;4157;48.074;9.952;2023-05-07T07:12:08;9.30;;;6.97;;
8232;SDS011;4157;48.074;9.952;2023-05-07T07:14:38;8.05;;;7.20;;
8232;SDS011;4157;48.074;9.952;2023-05-07T07:17:07;8.60;;;6.60;;
8232;SDS011;4157;48.074;9.952;2023-05-07T07:19:35;9.50;;;7.70;;
8232;SDS011;4157;48.074;9.952;2023-05-07T07:22:03;8.65;;;7.00;;
8232;SDS011;4157;48.074;9.952;2023-05-07T07:24:32;11.55;;;7.47;;
8232;SDS011;4157;48.074;9.952;2023-05-07T07:27:04;8.25;;;6.93;;
8232;SDS011;4157;48.074;9.952;2023-05-07T07:29:33;8.93;;;7.07;;
8232;SDS011;4157;48.074;9.952;2023-05-07T07:32:02;8.40;;;6.78;;
8232;SDS011;4157;48.074;9.952;2023-05-07T07:34:30;7.95;;;6.10;;
8232;SDS011;4157;48.074;9.952;2023-05-07T07:36:58;7.80;;;5.40;;
8232;SDS011;4157;48.074;9.952;2023-05-07T07:39:31;6.75;;;4.95;;
8232;SDS011;4157;48.074;9.952;2023-05-07T07:41:59;7.63;;;5.65;;
8232;SDS011;4157;48.074;9.952;2023-05-07T07:44:30;7.78;;;4.85;;
8232;SDS011;4157;48.074;9.952;2023-05-07T07:47:03;7.53;;;5.35;;
8232;SDS011;4157;48.074;9.952;2023-05-07T07:49:31;6.60;;;4.88;;
8232;SDS011;4157;48.074;9.952;2023-05-07T07:52:03;6.82;;;4.93;;
8232;SDS011;4157;48.074;9.952;2023-05-07T07:54:33;7.80;;;5.40;;
8232;SDS011;4157;48.074;9.952;2023-05-07T07:57:01;8.30;;;5.00;;
8232;SDS011;4157;48.074;9.952;2023-05-07T07:59:33;7.07;;;5.20;;
8232;SDS011;4157;48.074;9.952;2023-05-07T08:02:01;7.35;;;4.90;;
8232;SDS011;4157;48.074;9.952;2023-05-07T08:04:29;6.88;;;4.88;;
8232;SDS011;4157;48.074;9.952;2023-05-07T08:07:01;7.55;;;4.88;;
8232;SDS011;4157;48.074;9.952;2023-05-07T08:09:31;9.00;;;5.30;;
8232;SDS011;4157;48.074;9.952;2023-05-07T08:12:01;6.00;;;4.53;;
8232;SDS011;4157;48.074;9.952;2023-05-07T08:14:33;6.85;;;4.43;;
8232;SDS011;4157;48.074;9.952;2023-05-07T08:17:02;7.10;;;4.60;;
8232;SDS011;4157;48.074;9.952;2023-05-07T08:19:30;6.47;;;4.28;;
8232;SDS011;4157;48.074;9.952;2023-05-07T08:21:59;7.03;;;4.20;;
8232;SDS011;4157;48.074;9.952;2023-05-07T08:24:26;6.57;;;4.22;;
8232;SDS011;4157;48.074;9.952;2023-05-07T08:26:54;6.65;;;4.53;;
8232;SDS011;4157;48.074;9.952;2023-05-07T08:29:22;6.45;;;4.50;;
8232;SDS011;4157;48.074;9.952;2023-05-07T08:31:51;8.73;;;4.20;;
8232;SDS011;4157;48.074;9.952;2023-05-07T08:34:21;4.85;;;3.55;;
8232;SDS011;4157;48.074;9.952;2023-05-07T08:36:51;7.40;;;3.80;;
8232;SDS011;4157;48.074;9.952;2023-05-07T08:39:22;5.85;;;3.65;;
8232;SDS011;4157;48.074;9.952;2023-05-07T08:41:53;6.85;;;4.20;;
8232;SDS011;4157;48.074;9.952;2023-05-07T08:44:23;6.43;;;4.07;;
8232;SDS011;4157;48.074;9.952;2023-05-07T08:46:56;7.30;;;4.40;;
8232;SDS011;4157;48.074;9.952;2023-05-07T08:49:26;6.57;;;4.57;;
8232;SDS011;4157;48.074;9.952;2023-05-07T08:51:54;8.75;;;4.53;;
8232;SDS011;4157;48.074;9.952;2023-05-07T08:54:23;5.60;;;3.67;;
8232;SDS011;4157;48.074;9.952;2023-05-07T08:56:51;6.70;;;4.22;;
8232;SDS011;4157;48.074;9.952;2023-05-07T08:59:19;6.75;;;4.13;;
8232;SDS011;4157;48.074;9.952;2023-05-07T09:01:47;6.78;;;4.47;;
8232;SDS011;4157;48.074;9.952;2023-05-07T09:04:16;5.55;;;4.10;;
8232;SDS011;4157;48.074;9.952;2023-05-07T09:06:45;7.13;;;4.07;;
8232;SDS011;4157;48.074;9.952;2023-05-07T09:09:14;7.97;;;4.05;;
8232;SDS011;4157;48.074;9.952;2023-05-07T09:11:43;7.95;;;4.18;;
8232;SDS011;4157;48.074;9.952;2023-05-07T09:14:12;6.50;;;3.65;;
8232;SDS011;4157;48.074;9.952;2023-05-07T09:16:43;6.25;;;3.97;;
8232;SDS011;4157;48.074;9.952;2023-05-07T09:19:11;7.30;;;4.32;;
8232;SDS011;4157;48.074;9.952;2023-05-07T09:21:44;6.75;;;3.60;;
8232;SDS011;4157;48.074;9.952;2023-05-07T09:24:14;5.57;;;4.35;;
8232;SDS011;4157;48.074;9.952;2023-05-07T09:26:43;7.20;;;4.10;;
8232;SDS011;4157;48.074;9.952;2023-05-07T09:29:12;7.13;;;4.28;;
8232;SDS011;4157;48.074;9.952;2023-05-07T09:31:40;6.47;;;3.90;;
8232;SDS011;4157;48.074;9.952;2023-05-07T09:34:11;6.63;;;4.50;;
8232;SDS011;4157;48.074;9.952;2023-05-07T09:36:42;6.75;;;4.10;;
8232;SDS011;4157;48.074;9.952;2023-05-07T09:39:12;7.50;;;4.30;;
8232;SDS011;4157;48.074;9.952;2023-05-07T09:41:43;5.85;;;4.05;;
8232;SDS011;4157;48.074;9.952;2023-05-07T09:44:23;5.50;;;3.70;;
8232;SDS011;4157;48.074;9.952;2023-05-07T09:46:53;7.18;;;4.18;;
8232;SDS011;4157;48.074;9.952;2023-05-07T09:49:29;6.68;;;4.18;;
8232;SDS011;4157;48.074;9.952;2023-05-07T09:52:02;6.68;;;4.10;;
8232;SDS011;4157;48.074;9.952;2023-05-07T09:54:35;5.30;;;3.15;;
8232;SDS011;4157;48.074;9.952;2023-05-07T09:57:05;5.40;;;3.50;;
8232;SDS011;4157;48.074;9.952;2023-05-07T09:59:33;6.22;;;3.55;;
8232;SDS011;4157;48.074;9.952;2023-05-07T10:02:04;8.40;;;3.85;;
8232;SDS011;4157;48.074;9.952;2023-05-07T10:07:06;6.50;;;4.80;;
8232;SDS011;4157;48.074;9.952;2023-05-07T10:09:37;5.82;;;3.85;;
8232;SDS011;4157;48.074;9.952;2023-05-07T10:12:11;5.00;;;3.58;;
8232;SDS011;4157;48.074;9.952;2023-05-07T10:14:39;7.22;;;3.55;;
8232;SDS011;4157;48.074;9.952;2023-05-07T10:17:08;7.57;;;3.25;;
8232;SDS011;4157;48.074;9.952;2023-05-07T10:19:37;6.18;;;4.03;;
8232;SDS011;4157;48.074;9.952;2023-05-07T10:22:06;7.93;;;4.28;;
8232;SDS011;4157;48.074;9.952;2023-05-07T10:24:41;5.63;;;3.97;;
8232;SDS011;4157;48.074;9.952;2023-05-07T10:27:14;6.53;;;3.80;;
8232;SDS011;4157;48.074;9.952;2023-05-07T10:29:49;6.82;;;3.42;;
8232;SDS011;4157;48.074;9.952;2023-05-07T10:34:48;5.95;;;3.22;;
8232;SDS011;4157;48.074;9.952;2023-05-07T10:37:17;6.78;;;3.08;;
8232;SDS011;4157;48.074;9.952;2023-05-07T10:39:46;4.75;;;2.95;;
8232;SDS011;4157;48.074;9.952;2023-05-07T10:42:14;5.25;;;3.28;;
8232;SDS011;4157;48.074;9.952;2023-05-07T10:44:48;6.05;;;3.15;;
8232;SDS011;4157;48.074;9.952;2023-05-07T10:47:22;5.68;;;3.20;;
8232;SDS011;4157;48.074;9.952;2023-05-07T10:52:41;5.40;;;3.35;;
8232;SDS011;4157;48.074;9.952;2023-05-07T10:55:22;5.45;;;3.40;;
8232;SDS011;4157;48.074;9.952;2023-05-07T10:58:22;6.22;;;3.22;;
8232;SDS011;4157;48.074;9.952;2023-05-07T11:00:55;6.20;;;3.35;;
8232;SDS011;4157;48.074;9.952;2023-05-07T11:03:28;11.00;;;3.47;;
8232;SDS011;4157;48.074;9.952;2023-05-07T11:06:09;5.32;;;3.38;;
8232;SDS011;4157;48.074;9.952;2023-05-07T11:08:54;7.10;;;3.58;;
8232;SDS011;4157;48.074;9.952;2023-05-07T11:11:46;7.88;;;4.22;;
8232;SDS011;4157;48.074;9.952;2023-05-07T11:17:08;5.97;;;3.47;;
8232;SDS011;4157;48.074;9.952;2023-05-07T11:19:48;4.07;;;2.42;;
8232;SDS011;4157;48.074;9.952;2023-05-07T11:25:28;5.78;;;2.95;;
8232;SDS011;4157;48.074;9.952;2023-05-07T11:28:18;5.78;;;2.97;;
8232;SDS011;4157;48.074;9.952;2023-05-07T11:30:55;5.30;;;2.88;;
8232;SDS011;4157;48.074;9.952;2023-05-07T11:33:24;4.45;;;2.65;;
8232;SDS011;4157;48.074;9.952;2023-05-07T11:35:54;4.45;;;2.30;;
8232;SDS011;4157;48.074;9.952;2023-05-07T11:38:27;5.30;;;2.33;;
8232;SDS011;4157;48.074;9.952;2023-05-07T11:40:56;5.45;;;2.78;;
8232;SDS011;4157;48.074;9.952;2023-05-07T11:43:25;6.15;;;2.60;;
8232;SDS011;4157;48.074;9.952;2023-05-07T11:45:53;4.75;;;2.38;;
8232;SDS011;4157;48.074;9.952;2023-05-07T11:48:21;5.63;;;2.15;;
8232;SDS011;4157;48.074;9.952;2023-05-07T11:50:49;5.90;;;2.75;;
8232;SDS011;4157;48.074;9.952;2023-05-07T11:53:18;4.75;;;2.90;;
8232;SDS011;4157;48.074;9.952;2023-05-07T11:55:46;4.63;;;2.55;;
8232;SDS011;4157;48.074;9.952;2023-05-07T11:58:19;5.18;;;2.90;;
8232;SDS011;4157;48.074;9.952;2023-05-07T12:00:49;5.05;;;2.67;;
8232;SDS011;4157;48.074;9.952;2023-05-07T12:03:17;5.05;;;3.10;;
8232;SDS011;4157;48.074;9.952;2023-05-07T12:05:44;4.15;;;2.60;;
8232;SDS011;4157;48.074;9.952;2023-05-07T12:08:13;6.95;;;3.13;;
8232;SDS011;4157;48.074;9.952;2023-05-07T12:10:41;5.88;;;2.90;;
8232;SDS011;4157;48.074;9.952;2023-05-07T12:13:14;6.00;;;3.00;;
8232;SDS011;4157;48.074;9.952;2023-05-07T12:15:42;5.47;;;2.55;;
8232;SDS011;4157;48.074;9.952;2023-05-07T12:18:12;4.82;;;2.80;;
8232;SDS011;4157;48.074;9.952;2023-05-07T12:20:40;3.90;;;2.60;;
8232;SDS011;4157;48.074;9.952;2023-05-07T12:23:07;4.80;;;2.67;;
8232;SDS011;4157;48.074;9.952;2023-05-07T12:25:35;8.65;;;3.22;;
8232;SDS011;4157;48.074;9.952;2023-05-07T12:28:03;4.78;;;2.95;;
8232;SDS011;4157;48.074;9.952;2023-05-07T12:30:31;4.57;;;2.42;;
8232;SDS011;4157;48.074;9.952;2023-05-07T12:32:59;4.95;;;3.17;;
8232;SDS011;4157;48.074;9.952;2023-05-07T12:35:28;3.78;;;2.30;;
8232;SDS011;4157;48.074;9.952;2023-05-07T12:37:56;4.70;;;2.45;;
8232;SDS011;4157;48.074;9.952;2023-05-07T12:40:34;4.85;;;2.83;;
8232;SDS011;4157;48.074;9.952;2023-05-07T12:43:02;4.93;;;2.90;;
8232;SDS011;4157;48.074;9.952;2023-05-07T12:45:30;6.30;;;3.05;;
8232;SDS011;4157;48.074;9.952;2023-05-07T12:48:01;5.40;;;2.63;;
8232;SDS011;4157;48.074;9.952;2023-05-07T12:50:32;7.78;;;2.67;;
8232;SDS011;4157;48.074;9.952;2023-05-07T12:53:00;6.30;;;3.00;;
8232;SDS011;4157;48.074;9.952;2023-05-07T12:55:31;4.90;;;2.67;;
8232;SDS011;4157;48.074;9.952;2023-05-07T12:58:00;4.40;;;2.40;;
8232;SDS011;4157;48.074;9.952;2023-05-07T13:00:32;5.03;;;3.30;;
8232;SDS011;4157;48.074;9.952;2023-05-07T13:03:00;4.50;;;2.55;;
8232;SDS011;4157;48.074;9.952;2023-05-07T13:05:28;4.25;;;2.42;;
8232;SDS011;4157;48.074;9.952;2023-05-07T13:07:57;5.13;;;2.58;;
8232;SDS011;4157;48.074;9.952;2023-05-07T13:10:25;5.90;;;2.70;;
8232;SDS011;4157;48.074;9.952;2023-05-07T13:12:52;5.10;;;2.45;;
8232;SDS011;4157;48.074;9.952;2023-05-07T13:15:20;5.30;;;2.60;;
8232;SDS011;4157;48.074;9.952;2023-05-07T13:17:48;5.43;;;2.30;;
8232;SDS011;4157;48.074;9.952;2023-05-07T13:20:16;6.30;;;2.40;;
8232;SDS011;4157;48.074;9.952;2023-05-07T13:22:44;4.30;;;2.30;;
8232;SDS011;4157;48.074;9.952;2023-05-07T13:25:13;4.93;;;1.95;;
8232;SDS011;4157;48.074;9.952;2023-05-07T13:27:41;4.50;;;2.13;;
8232;SDS011;4157;48.074;9.952;2023-05-07T13:30:09;4.68;;;2.30;;
8232;SDS011;4157;48.074;9.952;2023-05-07T13:32:37;5.00;;;2.08;;
8232;SDS011;4157;48.074;9.952;2023-05-07T13:35:05;4.00;;;1.98;;
8232;SDS011;4157;48.074;9.952;2023-05-07T13:37:33;4.82;;;2.00;;
8232;SDS011;4157;48.074;9.952;2023-05-07T13:40:00;3.95;;;1.70;;
8232;SDS011;4157;48.074;9.952;2023-05-07T13:42:29;3.33;;;1.77;;
8232;SDS011;4157;48.074;9.952;2023-05-07T13:44:57;4.03;;;1.95;;
8232;SDS011;4157;48.074;9.952;2023-05-07T13:47:25;4.95;;;2.25;;
8232;SDS011;4157;48.074;9.952;2023-05-07T13:49:53;5.30;;;2.20;;
8232;SDS011;4157;48.074;9.952;2023-05-07T13:52:21;4.93;;;2.22;;
8232;SDS011;4157;48.074;9.952;2023-05-07T13:54:48;4.20;;;2.40;;
8232;SDS011;4157;48.074;9.952;2023-05-07T13:57:17;3.63;;;2.22;;
8232;SDS011;4157;48.074;9.952;2023-05-07T13:59:46;4.28;;;2.30;;
8232;SDS011;4157;48.074;9.952;2023-05-07T14:02:14;4.95;;;2.45;;
8232;SDS011;4157;48.074;9.952;2023-05-07T14:04:42;3.55;;;2.00;;
8232;SDS011;4157;48.074;9.952;2023-05-07T14:07:10;3.58;;;2.03;;
8232;SDS011;4157;48.074;9.952;2023-05-07T14:09:38;4.43;;;2.05;;
8232;SDS011;4157;48.074;9.952;2023-05-07T14:12:06;3.88;;;2.20;;
8232;SDS011;4157;48.074;9.952;2023-05-07T14:14:34;5.32;;;2.10;;
8232;SDS011;4157;48.074;9.952;2023-05-07T14:17:03;4.75;;;2.25;;
8232;SDS011;4157;48.074;9.952;2023-05-07T14:19:30;2.80;;;1.70;;
8232;SDS011;4157;48.074;9.952;2023-05-07T14:21:58;3.45;;;1.80;;
8232;SDS011;4157;48.074;9.952;2023-05-07T14:24:25;3.55;;;2.00;;
8232;SDS011;4157;48.074;9.952;2023-05-07T14:26:53;4.05;;;1.98;;
8232;SDS011;4157;48.074;9.952;2023-05-07T14:29:21;4.50;;;2.03;;
8232;SDS011;4157;48.074;9.952;2023-05-07T14:31:48;5.80;;;2.45;;
8232;SDS011;4157;48.074;9.952;2023-05-07T14:34:17;3.65;;;2.05;;
8232;SDS011;4157;48.074;9.952;2023-05-07T14:36:45;4.57;;;2.17;;
8232;SDS011;4157;48.074;9.952;2023-05-07T14:39:13;5.50;;;2.53;;
8232;SDS011;4157;48.074;9.952;2023-05-07T14:41:41;5.05;;;2.53;;
8232;SDS011;4157;48.074;9.952;2023-05-07T14:44:08;4.97;;;2.45;;
8232;SDS011;4157;48.074;9.952;2023-05-07T14:46:36;5.53;;;2.53;;
8232;SDS011;4157;48.074;9.952;2023-05-07T14:49:04;5.43;;;2.72;;
8232;SDS011;4157;48.074;9.952;2023-05-07T14:51:33;3.63;;;2.28;;
8232;SDS011;4157;48.074;9.952;2023-05-07T14:54:00;5.38;;;2.55;;
8232;SDS011;4157;48.074;9.952;2023-05-07T14:56:28;5.75;;;2.40;;
8232;SDS011;4157;48.074;9.952;2023-05-07T14:58:56;5.82;;;2.45;;
8232;SDS011;4157;48.074;9.952;2023-05-07T15:01:25;6.57;;;2.78;;
8232;SDS011;4157;48.074;9.952;2023-05-07T15:03:53;5.65;;;3.17;;
8232;SDS011;4157;48.074;9.952;2023-05-07T15:06:20;5.65;;;3.42;;
8232;SDS011;4157;48.074;9.952;2023-05-07T15:08:50;6.45;;;2.78;;
8232;SDS011;4157;48.074;9.952;2023-05-07T15:11:17;6.05;;;2.75;;
8232;SDS011;4157;48.074;9.952;2023-05-07T15:13:45;6.63;;;2.70;;
8232;SDS011;4157;48.074;9.952;2023-05-07T15:16:13;4.97;;;2.80;;
8232;SDS011;4157;48.074;9.952;2023-05-07T15:18:40;6.30;;;3.17;;
8232;SDS011;4157;48.074;9.952;2023-05-07T15:21:08;5.18;;;3.00;;
8232;SDS011;4157;48.074;9.952;2023-05-07T15:23:36;7.60;;;3.40;;
8232;SDS011;4157;48.074;9.952;2023-05-07T15:26:06;7.85;;;3.58;;
8232;SDS011;4157;48.074;9.952;2023-05-07T15:28:34;6.45;;;3.53;;
8232;SDS011;4157;48.074;9.952;2023-05-07T15:31:02;5.13;;;3.25;;
8232;SDS011;4157;48.074;9.952;2023-05-07T15:33:31;4.88;;;1.90;;
8232;SDS011;4157;48.074;9.952;2023-05-07T15:35:58;3.40;;;1.48;;
8232;SDS011;4157;48.074;9.952;2023-05-07T15:38:27;4.05;;;1.20;;
8232;SDS011;4157;48.074;9.952;2023-05-07T15:40:55;2.58;;;1.23;;
8232;SDS011;4157;48.074;9.952;2023-05-07T15:43:24;3.38;;;1.70;;